sensor_id;sensor_type;location;lat;lon;timestamp;temperature;humidity
8651;DHT22;4363;52.346;14.516;2022-10-18T00:00:52;16.30;99.90
8651;DHT22;4363;52.346;14.516;2022-10-18T00:03:18;16.30;99.90
8651;DHT22;4363;52.346;14.516;2022-10-18T00:05:45;16.20;99.90
8651;DHT22;4363;52.346;14.516;2022-10-18T00:08:11;16.30;99.90
8651;DHT22;4363;52.346;14.516;2022-10-18T00:10:36;15.50;99.90
8651;DHT22;4363;52.346;14.516;2022-10-18T00:13:02;16.30;99.90
8651;DHT22;4363;52.346;14.516;2022-10-18T00:15:27;16.30;99.90
8651;DHT22;4363;52.346;14.516;2022-10-18T00:17:53;16.30;99.90
8651;DHT22;4363;52.346;14.516;2022-10-18T00:20:18;16.30;99.90
8651;DHT22;4363;52.346;14.516;2022-10-18T00:22:44;16.20;99.90
8651;DHT22;4363;52.346;14.516;2022-10-18T00:25:10;16.20;99.90
8651;DHT22;4363;52.346;14.516;2022-10-18T00:27:36;16.20;99.90
8651;DHT22;4363;52.346;14.516;2022-10-18T00:30:02;16.10;99.90
8651;DHT22;4363;52.346;14.516;2022-10-18T00:32:28;16.10;99.90
8651;DHT22;4363;52.346;14.516;2022-10-18T00:34:54;15.80;99.90
8651;DHT22;4363;52.346;14.516;2022-10-18T00:37:19;16.00;99.90
8651;DHT22;4363;52.346;14.516;2022-10-18T00:39:45;16.00;99.90
8651;DHT22;4363;52.346;14.516;2022-10-18T00:42:16;15.90;99.90
8651;DHT22;4363;52.346;14.516;2022-10-18T00:47:09;15.90;99.90
8651;DHT22;4363;52.346;14.516;2022-10-18T00:49:40;15.80;99.90
8651;DHT22;4363;52.346;14.516;2022-10-18T00:52:13;15.80;99.90
8651;DHT22;4363;52.346;14.516;2022-10-18T00:54:41;15.80;99.90
8651;DHT22;4363;52.346;14.516;2022-10-18T00:57:07;15.80;99.90
8651;DHT22;4363;52.346;14.516;2022-10-18T00:59:33;15.80;99.90
8651;DHT22;4363;52.346;14.516;2022-10-18T01:02:00;15.80;99.90
8651;DHT22;4363;52.346;14.516;2022-10-18T01:04:26;15.80;99.90
8651;DHT22;4363;52.346;14.516;2022-10-18T01:15:00;15.80;99.90
8651;DHT22;4363;52.346;14.516;2022-10-18T01:20:32;15.90;99.90
8651;DHT22;4363;52.346;14.516;2022-10-18T01:23:09;15.80;99.90
8651;DHT22;4363;52.346;14.516;2022-10-18T01:25:48;15.80;99.90
8651;DHT22;4363;52.346;14.516;2022-10-18T01:30:59;15.80;99.90
8651;DHT22;4363;52.346;14.516;2022-10-18T01:33:37;15.90;99.90
8651;DHT22;4363;52.346;14.516;2022-10-18T01:36:20;15.80;99.90
8651;DHT22;4363;52.346;14.516;2022-10-18T01:38:49;15.80;99.90
8651;DHT22;4363;52.346;14.516;2022-10-18T01:41:18;15.70;99.90
8651;DHT22;4363;52.346;14.516;2022-10-18T01:43:47;15.80;99.90
8651;DHT22;4363;52.346;14.516;2022-10-18T01:46:18;15.70;99.90
8651;DHT22;4363;52.346;14.516;2022-10-18T01:48:45;15.80;99.90
8651;DHT22;4363;52.346;14.516;2022-10-18T01:51:11;15.80;99.90
8651;DHT22;4363;52.346;14.516;2022-10-18T01:53:36;15.70;99.90
8651;DHT22;4363;52.346;14.516;2022-10-18T01:56:19;15.70;99.90
8651;DHT22;4363;52.346;14.516;2022-10-18T02:04:51;15.70;99.90
8651;DHT22;4363;52.346;14.516;2022-10-18T02:06:56;15.70;99.90
8651;DHT22;4363;52.346;14.516;2022-10-18T02:09:34;15.70;99.90
8651;DHT22;4363;52.346;14.516;2022-10-18T02:12:04;15.60;99.90
8651;DHT22;4363;52.346;14.516;2022-10-18T02:14:31;15.60;99.90
8651;DHT22;4363;52.346;14.516;2022-10-18T02:16:59;15.60;99.90
8651;DHT22;4363;52.346;14.516;2022-10-18T02:19:31;15.60;99.90
8651;DHT22;4363;52.346;14.516;2022-10-18T02:21:58;14.80;99.90
8651;DHT22;4363;52.346;14.516;2022-10-18T02:24:32;15.50;99.90
8651;DHT22;4363;52.346;14.516;2022-10-18T02:26:59;15.50;99.90
8651;DHT22;4363;52.346;14.516;2022-10-18T02:29:25;15.80;99.90
8651;DHT22;4363;52.346;14.516;2022-10-18T02:31:57;15.50;99.90
8651;DHT22;4363;52.346;14.516;2022-10-18T02:34:31;15.50;99.90
8651;DHT22;4363;52.346;14.516;2022-10-18T02:37:00;15.50;99.90
8651;DHT22;4363;52.346;14.516;2022-10-18T02:39:29;15.50;99.90
8651;DHT22;4363;52.346;14.516;2022-10-18T02:41:56;15.50;99.90
8651;DHT22;4363;52.346;14.516;2022-10-18T02:44:22;15.50;99.90
8651;DHT22;4363;52.346;14.516;2022-10-18T02:46:48;15.50;99.90
8651;DHT22;4363;52.346;14.516;2022-10-18T02:49:14;15.50;99.90
8651;DHT22;4363;52.346;14.516;2022-10-18T02:51:39;15.50;99.90
8651;DHT22;4363;52.346;14.516;2022-10-18T02:54:05;15.40;99.90
8651;DHT22;4363;52.346;14.516;2022-10-18T02:56:32;15.50;99.90
8651;DHT22;4363;52.346;14.516;2022-10-18T03:01:24;15.50;99.90
8651;DHT22;4363;52.346;14.516;2022-10-18T03:03:50;15.50;99.90
8651;DHT22;4363;52.346;14.516;2022-10-18T03:06:15;15.60;99.90
8651;DHT22;4363;52.346;14.516;2022-10-18T03:08:41;15.60;99.90
8651;DHT22;4363;52.346;14.516;2022-10-18T03:11:06;15.60;99.90
8651;DHT22;4363;52.346;14.516;2022-10-18T03:13:32;15.60;99.90
8651;DHT22;4363;52.346;14.516;2022-10-18T03:15:59;15.70;99.90
8651;DHT22;4363;52.346;14.516;2022-10-18T03:18:24;15.60;99.90
8651;DHT22;4363;52.346;14.516;2022-10-18T03:20:50;15.60;99.90
8651;DHT22;4363;52.346;14.516;2022-10-18T03:23:16;15.50;99.90
8651;DHT22;4363;52.346;14.516;2022-10-18T03:25:41;15.50;99.90
8651;DHT22;4363;52.346;14.516;2022-10-18T03:28:07;15.50;99.90
8651;DHT22;4363;52.346;14.516;2022-10-18T03:30:32;15.50;99.90
8651;DHT22;4363;52.346;14.516;2022-10-18T03:32:58;15.50;99.90
8651;DHT22;4363;52.346;14.516;2022-10-18T03:35:24;15.50;99.90
8651;DHT22;4363;52.346;14.516;2022-10-18T03:37:49;15.50;99.90
8651;DHT22;4363;52.346;14.516;2022-10-18T03:40:15;15.50;99.90
8651;DHT22;4363;52.346;14.516;2022-10-18T03:45:07;15.50;99.90
8651;DHT22;4363;52.346;14.516;2022-10-18T03:49:58;15.40;99.90
8651;DHT22;4363;52.346;14.516;2022-10-18T03:52:24;15.50;99.90
8651;DHT22;4363;52.346;14.516;2022-10-18T03:54:49;15.60;99.90
8651;DHT22;4363;52.346;14.516;2022-10-18T03:57:15;15.50;99.90
8651;DHT22;4363;52.346;14.516;2022-10-18T04:02:06;15.50;99.90
8651;DHT22;4363;52.346;14.516;2022-10-18T04:04:32;15.60;99.90
8651;DHT22;4363;52.346;14.516;2022-10-18T04:06:57;15.50;99.90
8651;DHT22;4363;52.346;14.516;2022-10-18T04:09:23;15.60;99.90
8651;DHT22;4363;52.346;14.516;2022-10-18T04:11:49;15.60;99.90
8651;DHT22;4363;52.346;14.516;2022-10-18T04:14:15;15.60;99.90
8651;DHT22;4363;52.346;14.516;2022-10-18T04:16:40;15.60;99.90
8651;DHT22;4363;52.346;14.516;2022-10-18T04:19:06;15.60;99.90
8651;DHT22;4363;52.346;14.516;2022-10-18T04:26:23;15.80;99.90
8651;DHT22;4363;52.346;14.516;2022-10-18T04:28:49;15.80;99.90
8651;DHT22;4363;52.346;14.516;2022-10-18T04:31:14;15.90;99.90
8651;DHT22;4363;52.346;14.516;2022-10-18T04:33:40;15.80;99.90
8651;DHT22;4363;52.346;14.516;2022-10-18T04:38:32;15.90;99.90
8651;DHT22;4363;52.346;14.516;2022-10-18T04:40:57;15.80;99.90
8651;DHT22;4363;52.346;14.516;2022-10-18T04:43:23;15.90;99.90
8651;DHT22;4363;52.346;14.516;2022-10-18T04:48:18;15.90;99.90
8651;DHT22;4363;52.346;14.516;2022-10-18T04:50:47;15.90;99.90
8651;DHT22;4363;52.346;14.516;2022-10-18T04:53:13;15.60;99.90
8651;DHT22;4363;52.346;14.516;2022-10-18T04:55:39;15.90;99.90
8651;DHT22;4363;52.346;14.516;2022-10-18T04:58:04;16.00;99.90
8651;DHT22;4363;52.346;14.516;2022-10-18T05:00:30;15.90;99.90
8651;DHT22;4363;52.346;14.516;2022-10-18T05:02:56;15.90;99.90
8651;DHT22;4363;52.346;14.516;2022-10-18T05:05:22;15.80;99.90
8651;DHT22;4363;52.346;14.516;2022-10-18T05:07:47;15.80;99.90
8651;DHT22;4363;52.346;14.516;2022-10-18T05:10:13;15.90;99.90
8651;DHT22;4363;52.346;14.516;2022-10-18T05:12:39;15.80;99.90
8651;DHT22;4363;52.346;14.516;2022-10-18T05:15:04;15.80;99.90
8651;DHT22;4363;52.346;14.516;2022-10-18T05:17:30;15.80;99.90
8651;DHT22;4363;52.346;14.516;2022-10-18T05:22:22;15.20;99.90
8651;DHT22;4363;52.346;14.516;2022-10-18T05:27:13;15.70;99.90
8651;DHT22;4363;52.346;14.516;2022-10-18T05:29:38;15.80;99.90
8651;DHT22;4363;52.346;14.516;2022-10-18T05:32:04;15.80;99.90
8651;DHT22;4363;52.346;14.516;2022-10-18T05:36:59;15.80;99.90
8651;DHT22;4363;52.346;14.516;2022-10-18T05:39:25;15.60;99.90
8651;DHT22;4363;52.346;14.516;2022-10-18T05:41:50;15.80;99.90
8651;DHT22;4363;52.346;14.516;2022-10-18T05:46:42;15.70;99.90
8651;DHT22;4363;52.346;14.516;2022-10-18T05:49:12;15.70;99.90
8651;DHT22;4363;52.346;14.516;2022-10-18T05:51:38;16.00;99.90
8651;DHT22;4363;52.346;14.516;2022-10-18T05:56:29;15.70;99.90
8651;DHT22;4363;52.346;14.516;2022-10-18T05:58:55;15.80;99.90
8651;DHT22;4363;52.346;14.516;2022-10-18T06:01:20;15.70;99.90
8651;DHT22;4363;52.346;14.516;2022-10-18T06:03:46;15.70;99.90
8651;DHT22;4363;52.346;14.516;2022-10-18T06:06:12;15.60;99.90
8651;DHT22;4363;52.346;14.516;2022-10-18T06:08:39;15.70;99.90
8651;DHT22;4363;52.346;14.516;2022-10-18T06:11:06;15.60;99.90
8651;DHT22;4363;52.346;14.516;2022-10-18T06:13:32;15.70;99.90
8651;DHT22;4363;52.346;14.516;2022-10-18T06:18:24;15.80;99.90
8651;DHT22;4363;52.346;14.516;2022-10-18T06:20:55;15.70;99.90
8651;DHT22;4363;52.346;14.516;2022-10-18T06:23:21;15.70;99.90
8651;DHT22;4363;52.346;14.516;2022-10-18T06:25:46;15.70;99.90
8651;DHT22;4363;52.346;14.516;2022-10-18T06:28:12;15.80;99.90
8651;DHT22;4363;52.346;14.516;2022-10-18T06:30:37;15.70;99.90
8651;DHT22;4363;52.346;14.516;2022-10-18T06:33:03;15.90;99.90
8651;DHT22;4363;52.346;14.516;2022-10-18T06:35:28;15.80;99.90
8651;DHT22;4363;52.346;14.516;2022-10-18T06:37:54;16.00;99.90
8651;DHT22;4363;52.346;14.516;2022-10-18T06:40:19;15.60;99.90
8651;DHT22;4363;52.346;14.516;2022-10-18T06:42:45;15.70;99.90
8651;DHT22;4363;52.346;14.516;2022-10-18T06:45:12;15.80;99.90
8651;DHT22;4363;52.346;14.516;2022-10-18T06:47:38;15.90;99.90
8651;DHT22;4363;52.346;14.516;2022-10-18T06:52:30;15.90;99.90
8651;DHT22;4363;52.346;14.516;2022-10-18T06:54:55;15.80;99.90
8651;DHT22;4363;52.346;14.516;2022-10-18T06:57:21;15.80;99.90
8651;DHT22;4363;52.346;14.516;2022-10-18T07:02:16;15.80;99.90
8651;DHT22;4363;52.346;14.516;2022-10-18T07:07:07;15.80;99.90
8651;DHT22;4363;52.346;14.516;2022-10-18T07:09:33;16.00;99.90
8651;DHT22;4363;52.346;14.516;2022-10-18T07:11:58;15.90;99.90
8651;DHT22;4363;52.346;14.516;2022-10-18T07:19:16;16.20;99.90
8651;DHT22;4363;52.346;14.516;2022-10-18T07:21:41;16.20;99.90
8651;DHT22;4363;52.346;14.516;2022-10-18T07:24:07;16.30;99.90
8651;DHT22;4363;52.346;14.516;2022-10-18T07:26:34;16.20;99.90
8651;DHT22;4363;52.346;14.516;2022-10-18T07:29:05;16.20;99.90
8651;DHT22;4363;52.346;14.516;2022-10-18T07:31:32;16.20;99.90
8651;DHT22;4363;52.346;14.516;2022-10-18T07:33:58;16.10;99.90
8651;DHT22;4363;52.346;14.516;2022-10-18T07:36:23;16.20;99.90
8651;DHT22;4363;52.346;14.516;2022-10-18T07:38:53;16.10;99.90
8651;DHT22;4363;52.346;14.516;2022-10-18T07:41:19;16.00;99.90
8651;DHT22;4363;52.346;14.516;2022-10-18T07:43:47;16.10;99.90
8651;DHT22;4363;52.346;14.516;2022-10-18T07:46:13;16.10;99.90
8651;DHT22;4363;52.346;14.516;2022-10-18T07:51:06;16.10;99.90
8651;DHT22;4363;52.346;14.516;2022-10-18T07:53:31;16.10;99.90
8651;DHT22;4363;52.346;14.516;2022-10-18T07:56:00;16.10;99.90
8651;DHT22;4363;52.346;14.516;2022-10-18T08:05:50;16.10;99.90
8651;DHT22;4363;52.346;14.516;2022-10-18T08:08:17;16.10;99.90
8651;DHT22;4363;52.346;14.516;2022-10-18T08:10:42;16.10;99.90
8651;DHT22;4363;52.346;14.516;2022-10-18T08:13:08;16.10;99.90
8651;DHT22;4363;52.346;14.516;2022-10-18T08:15:33;16.00;99.90
8651;DHT22;4363;52.346;14.516;2022-10-18T08:17:59;16.00;99.90
8651;DHT22;4363;52.346;14.516;2022-10-18T08:20:24;16.10;99.90
8651;DHT22;4363;52.346;14.516;2022-10-18T08:22:50;16.00;99.90
8651;DHT22;4363;52.346;14.516;2022-10-18T08:25:15;16.00;99.90
8651;DHT22;4363;52.346;14.516;2022-10-18T08:27:41;16.10;99.90
8651;DHT22;4363;52.346;14.516;2022-10-18T08:30:07;16.00;99.90
8651;DHT22;4363;52.346;14.516;2022-10-18T08:37:25;16.10;99.90
8651;DHT22;4363;52.346;14.516;2022-10-18T08:45:04;15.90;99.90
8651;DHT22;4363;52.346;14.516;2022-10-18T08:47:35;15.80;99.90
8651;DHT22;4363;52.346;14.516;2022-10-18T08:50:07;16.00;99.90
8651;DHT22;4363;52.346;14.516;2022-10-18T08:52:52;16.10;99.90
8651;DHT22;4363;52.346;14.516;2022-10-18T08:55:25;15.70;99.90
8651;DHT22;4363;52.346;14.516;2022-10-18T08:57:53;15.80;99.90
8651;DHT22;4363;52.346;14.516;2022-10-18T09:00:21;15.90;99.90
8651;DHT22;4363;52.346;14.516;2022-10-18T09:05:51;15.90;99.90
8651;DHT22;4363;52.346;14.516;2022-10-18T09:09:05;16.00;99.90
8651;DHT22;4363;52.346;14.516;2022-10-18T09:14:26;16.20;99.90
8651;DHT22;4363;52.346;14.516;2022-10-18T09:17:35;16.10;99.90
8651;DHT22;4363;52.346;14.516;2022-10-18T09:20:23;16.20;99.90
8651;DHT22;4363;52.346;14.516;2022-10-18T09:22:53;16.20;99.90
8651;DHT22;4363;52.346;14.516;2022-10-18T09:25:22;16.20;99.90
8651;DHT22;4363;52.346;14.516;2022-10-18T09:28:02;16.30;99.90
8651;DHT22;4363;52.346;14.516;2022-10-18T09:33:25;16.40;99.90
8651;DHT22;4363;52.346;14.516;2022-10-18T09:36:00;16.30;99.90
8651;DHT22;4363;52.346;14.516;2022-10-18T09:38:33;16.30;99.90
8651;DHT22;4363;52.346;14.516;2022-10-18T09:41:26;16.50;99.90
8651;DHT22;4363;52.346;14.516;2022-10-18T09:46:23;16.20;99.90
8651;DHT22;4363;52.346;14.516;2022-10-18T09:48:56;16.30;99.90
8651;DHT22;4363;52.346;14.516;2022-10-18T09:51:26;16.60;99.90
8651;DHT22;4363;52.346;14.516;2022-10-18T09:54:19;16.60;99.90
8651;DHT22;4363;52.346;14.516;2022-10-18T09:57:01;16.80;99.90
8651;DHT22;4363;52.346;14.516;2022-10-18T09:59:35;16.50;99.90
8651;DHT22;4363;52.346;14.516;2022-10-18T10:06:55;16.40;99.90
8651;DHT22;4363;52.346;14.516;2022-10-18T10:12:32;16.40;99.90
8651;DHT22;4363;52.346;14.516;2022-10-18T10:15:18;16.50;99.90
8651;DHT22;4363;52.346;14.516;2022-10-18T10:17:56;16.90;99.90
8651;DHT22;4363;52.346;14.516;2022-10-18T10:20:26;16.40;99.90
8651;DHT22;4363;52.346;14.516;2022-10-18T10:23:15;16.40;99.90
8651;DHT22;4363;52.346;14.516;2022-10-18T10:28:15;16.50;99.90
8651;DHT22;4363;52.346;14.516;2022-10-18T10:30:42;16.60;99.90
8651;DHT22;4363;52.346;14.516;2022-10-18T10:33:32;16.50;99.90
8651;DHT22;4363;52.346;14.516;2022-10-18T10:35:59;16.50;99.90
8651;DHT22;4363;52.346;14.516;2022-10-18T10:38:26;16.40;99.90
8651;DHT22;4363;52.346;14.516;2022-10-18T10:40:53;16.50;99.90
8651;DHT22;4363;52.346;14.516;2022-10-18T10:43:27;16.60;99.90
8651;DHT22;4363;52.346;14.516;2022-10-18T10:45:57;16.50;99.90
8651;DHT22;4363;52.346;14.516;2022-10-18T10:48:25;16.40;99.90
8651;DHT22;4363;52.346;14.516;2022-10-18T10:55:55;17.20;99.90
8651;DHT22;4363;52.346;14.516;2022-10-18T11:00:48;16.40;99.90
8651;DHT22;4363;52.346;14.516;2022-10-18T11:03:21;16.30;99.90
8651;DHT22;4363;52.346;14.516;2022-10-18T11:05:53;17.70;99.90
8651;DHT22;4363;52.346;14.516;2022-10-18T11:08:25;16.40;99.90
8651;DHT22;4363;52.346;14.516;2022-10-18T11:11:20;16.30;99.90
8651;DHT22;4363;52.346;14.516;2022-10-18T11:14:02;16.20;99.90
8651;DHT22;4363;52.346;14.516;2022-10-18T11:22:44;16.10;99.90
8651;DHT22;4363;52.346;14.516;2022-10-18T11:25:15;16.10;99.90
8651;DHT22;4363;52.346;14.516;2022-10-18T11:27:59;16.10;99.90
8651;DHT22;4363;52.346;14.516;2022-10-18T11:30:40;16.10;99.90
8651;DHT22;4363;52.346;14.516;2022-10-18T11:33:27;16.00;99.90
8651;DHT22;4363;52.346;14.516;2022-10-18T11:36:04;16.00;99.90
8651;DHT22;4363;52.346;14.516;2022-10-18T11:38:56;16.10;99.90
8651;DHT22;4363;52.346;14.516;2022-10-18T11:41:31;16.00;99.90
8651;DHT22;4363;52.346;14.516;2022-10-18T11:44:05;15.90;99.90
8651;DHT22;4363;52.346;14.516;2022-10-18T11:57:55;15.90;99.90
8651;DHT22;4363;52.346;14.516;2022-10-18T12:05:47;15.80;99.90
8651;DHT22;4363;52.346;14.516;2022-10-18T12:10:43;15.70;99.90
8651;DHT22;4363;52.346;14.516;2022-10-18T12:13:17;15.70;99.90
8651;DHT22;4363;52.346;14.516;2022-10-18T12:15:43;15.80;99.90
8651;DHT22;4363;52.346;14.516;2022-10-18T12:18:14;15.80;99.90
8651;DHT22;4363;52.346;14.516;2022-10-18T12:20:44;15.70;99.90
8651;DHT22;4363;52.346;14.516;2022-10-18T12:25:42;15.80;99.90
8651;DHT22;4363;52.346;14.516;2022-10-18T12:30:44;15.90;99.90
8651;DHT22;4363;52.346;14.516;2022-10-18T12:33:24;15.90;99.90
8651;DHT22;4363;52.346;14.516;2022-10-18T12:39:09;16.00;99.90
8651;DHT22;4363;52.346;14.516;2022-10-18T12:41:33;15.90;99.90
8651;DHT22;4363;52.346;14.516;2022-10-18T12:46:52;16.00;99.90
8651;DHT22;4363;52.346;14.516;2022-10-18T12:49:28;15.80;99.90
8651;DHT22;4363;52.346;14.516;2022-10-18T12:52:20;15.90;99.90
8651;DHT22;4363;52.346;14.516;2022-10-18T13:16:47;16.00;99.90
8651;DHT22;4363;52.346;14.516;2022-10-18T13:22:04;16.00;99.90
8651;DHT22;4363;52.346;14.516;2022-10-18T13:30:10;16.10;99.90
8651;DHT22;4363;52.346;14.516;2022-10-18T13:36:01;16.10;99.90
8651;DHT22;4363;52.346;14.516;2022-10-18T13:41:20;16.00;99.90
8651;DHT22;4363;52.346;14.516;2022-10-18T13:51:48;15.90;99.90
8651;DHT22;4363;52.346;14.516;2022-10-18T13:54:39;16.10;99.90
8651;DHT22;4363;52.346;14.516;2022-10-18T13:59:54;16.10;99.90
8651;DHT22;4363;52.346;14.516;2022-10-18T14:08:02;16.10;99.90
8651;DHT22;4363;52.346;14.516;2022-10-18T14:13:49;16.20;99.90
8651;DHT22;4363;52.346;14.516;2022-10-18T14:18:49;16.20;99.90
8651;DHT22;4363;52.346;14.516;2022-10-18T14:21:22;16.00;99.90
8651;DHT22;4363;52.346;14.516;2022-10-18T14:26:18;16.10;99.90
8651;DHT22;4363;52.346;14.516;2022-10-18T14:31:13;16.10;99.90
8651;DHT22;4363;52.346;14.516;2022-10-18T14:33:50;16.30;99.90
8651;DHT22;4363;52.346;14.516;2022-10-18T14:41:23;16.20;99.90
8651;DHT22;4363;52.346;14.516;2022-10-18T14:43:51;16.00;99.90
8651;DHT22;4363;52.346;14.516;2022-10-18T14:46:23;16.10;99.90
8651;DHT22;4363;52.346;14.516;2022-10-18T14:49:10;16.10;99.90
8651;DHT22;4363;52.346;14.516;2022-10-18T14:51:38;15.90;99.90
8651;DHT22;4363;52.346;14.516;2022-10-18T14:54:05;16.20;99.90
8651;DHT22;4363;52.346;14.516;2022-10-18T14:56:37;16.20;99.90
8651;DHT22;4363;52.346;14.516;2022-10-18T14:59:14;16.20;99.90
8651;DHT22;4363;52.346;14.516;2022-10-18T15:01:50;17.40;99.90
8651;DHT22;4363;52.346;14.516;2022-10-18T15:06:43;16.30;99.90
8651;DHT22;4363;52.346;14.516;2022-10-18T15:09:10;16.40;99.90
8651;DHT22;4363;52.346;14.516;2022-10-18T15:11:39;16.30;99.90
8651;DHT22;4363;52.346;14.516;2022-10-18T15:14:12;16.50;99.90
8651;DHT22;4363;52.346;14.516;2022-10-18T15:16:39;16.30;99.90
8651;DHT22;4363;52.346;14.516;2022-10-18T15:24:39;16.10;99.90
8651;DHT22;4363;52.346;14.516;2022-10-18T15:27:28;15.70;99.90
8651;DHT22;4363;52.346;14.516;2022-10-18T15:29:56;16.10;99.90
8651;DHT22;4363;52.346;14.516;2022-10-18T15:32:28;16.00;99.90
8651;DHT22;4363;52.346;14.516;2022-10-18T15:35:06;16.10;99.90
8651;DHT22;4363;52.346;14.516;2022-10-18T15:37:41;15.90;99.90
8651;DHT22;4363;52.346;14.516;2022-10-18T15:40:33;16.00;99.90
8651;DHT22;4363;52.346;14.516;2022-10-18T15:43:05;15.90;99.90
8651;DHT22;4363;52.346;14.516;2022-10-18T15:58:19;15.50;99.90
8651;DHT22;4363;52.346;14.516;2022-10-18T16:00:46;15.50;99.90
8651;DHT22;4363;52.346;14.516;2022-10-18T16:03:13;15.40;99.90
8651;DHT22;4363;52.346;14.516;2022-10-18T16:08:05;15.50;99.90
8651;DHT22;4363;52.346;14.516;2022-10-18T16:15:23;15.20;99.90
8651;DHT22;4363;52.346;14.516;2022-10-18T16:17:48;15.30;99.90
8651;DHT22;4363;52.346;14.516;2022-10-18T16:20:19;15.30;99.90
8651;DHT22;4363;52.346;14.516;2022-10-18T16:22:45;15.30;99.90
8651;DHT22;4363;52.346;14.516;2022-10-18T16:25:10;15.30;99.90
8651;DHT22;4363;52.346;14.516;2022-10-18T16:30:10;15.40;99.90
8651;DHT22;4363;52.346;14.516;2022-10-18T16:32:37;15.30;99.90
8651;DHT22;4363;52.346;14.516;2022-10-18T16:39:55;15.10;99.90
8651;DHT22;4363;52.346;14.516;2022-10-18T16:59:26;14.70;99.90
8651;DHT22;4363;52.346;14.516;2022-10-18T17:09:13;14.70;99.90
8651;DHT22;4363;52.346;14.516;2022-10-18T17:11:39;14.60;99.90
8651;DHT22;4363;52.346;14.516;2022-10-18T17:14:05;14.60;99.90
8651;DHT22;4363;52.346;14.516;2022-10-18T17:16:33;14.60;99.90
8651;DHT22;4363;52.346;14.516;2022-10-18T17:19:01;14.60;99.90
8651;DHT22;4363;52.346;14.516;2022-10-18T17:26:22;14.50;99.90
8651;DHT22;4363;52.346;14.516;2022-10-18T17:28:52;14.60;99.90
8651;DHT22;4363;52.346;14.516;2022-10-18T17:41:09;14.30;99.90
8651;DHT22;4363;52.346;14.516;2022-10-18T17:43:36;14.30;99.90
8651;DHT22;4363;52.346;14.516;2022-10-18T18:00:41;14.10;99.90
8651;DHT22;4363;52.346;14.516;2022-10-18T18:07:59;14.20;99.90
8651;DHT22;4363;52.346;14.516;2022-10-18T18:15:17;13.80;99.90
8651;DHT22;4363;52.346;14.516;2022-10-18T18:20:09;13.90;99.90
8651;DHT22;4363;52.346;14.516;2022-10-18T18:42:04;13.40;99.90
8651;DHT22;4363;52.346;14.516;2022-10-18T18:54:19;13.50;99.90
8651;DHT22;4363;52.346;14.516;2022-10-18T18:56:46;13.30;99.90
8651;DHT22;4363;52.346;14.516;2022-10-18T18:59:12;13.60;99.90
8651;DHT22;4363;52.346;14.516;2022-10-18T19:04:06;13.30;99.90
8651;DHT22;4363;52.346;14.516;2022-10-18T19:06:37;13.60;99.90
8651;DHT22;4363;52.346;14.516;2022-10-18T19:09:05;13.20;99.90
8651;DHT22;4363;52.346;14.516;2022-10-18T19:11:36;13.10;99.90
8651;DHT22;4363;52.346;14.516;2022-10-18T19:14:04;13.30;99.90
8651;DHT22;4363;52.346;14.516;2022-10-18T19:16:35;13.20;99.90
8651;DHT22;4363;52.346;14.516;2022-10-18T19:19:08;13.20;99.90
8651;DHT22;4363;52.346;14.516;2022-10-18T19:21:37;13.10;99.90
8651;DHT22;4363;52.346;14.516;2022-10-18T19:24:04;13.10;99.90
8651;DHT22;4363;52.346;14.516;2022-10-18T19:26:36;13.30;99.90
8651;DHT22;4363;52.346;14.516;2022-10-18T19:29:07;13.00;99.90
8651;DHT22;4363;52.346;14.516;2022-10-18T19:31:34;12.90;99.90
8651;DHT22;4363;52.346;14.516;2022-10-18T19:34:02;13.10;99.90
8651;DHT22;4363;52.346;14.516;2022-10-18T19:36:28;13.10;99.90
8651;DHT22;4363;52.346;14.516;2022-10-18T19:38:54;13.00;99.90
8651;DHT22;4363;52.346;14.516;2022-10-18T19:41:20;12.90;99.90
8651;DHT22;4363;52.346;14.516;2022-10-18T19:43:45;12.90;99.90
8651;DHT22;4363;52.346;14.516;2022-10-18T19:46:11;13.00;99.90
8651;DHT22;4363;52.346;14.516;2022-10-18T19:48:37;13.10;99.90
8651;DHT22;4363;52.346;14.516;2022-10-18T19:51:06;12.90;99.90
8651;DHT22;4363;52.346;14.516;2022-10-18T19:53:32;12.90;99.90
8651;DHT22;4363;52.346;14.516;2022-10-18T19:55:59;11.90;99.90
8651;DHT22;4363;52.346;14.516;2022-10-18T19:58:26;13.00;99.90
8651;DHT22;4363;52.346;14.516;2022-10-18T20:00:53;12.80;99.90
8651;DHT22;4363;52.346;14.516;2022-10-18T20:03:19;12.80;99.90
8651;DHT22;4363;52.346;14.516;2022-10-18T20:05:44;13.40;99.90
8651;DHT22;4363;52.346;14.516;2022-10-18T20:08:10;12.50;99.90
8651;DHT22;4363;52.346;14.516;2022-10-18T20:17:55;12.70;99.90
8651;DHT22;4363;52.346;14.516;2022-10-18T20:20:20;12.80;99.90
8651;DHT22;4363;52.346;14.516;2022-10-18T20:25:12;12.90;99.90
8651;DHT22;4363;52.346;14.516;2022-10-18T20:27:37;12.80;99.90
8651;DHT22;4363;52.346;14.516;2022-10-18T20:32:29;12.80;99.90
8651;DHT22;4363;52.346;14.516;2022-10-18T20:34:55;12.90;99.90
8651;DHT22;4363;52.346;14.516;2022-10-18T20:39:47;12.80;99.90
8651;DHT22;4363;52.346;14.516;2022-10-18T20:44:38;12.50;99.90
8651;DHT22;4363;52.346;14.516;2022-10-18T20:47:07;12.60;99.90
8651;DHT22;4363;52.346;14.516;2022-10-18T20:49:33;12.60;99.90
8651;DHT22;4363;52.346;14.516;2022-10-18T20:51:58;12.60;99.90
8651;DHT22;4363;52.346;14.516;2022-10-18T20:54:24;12.60;99.90
8651;DHT22;4363;52.346;14.516;2022-10-18T20:59:16;12.50;99.90
8651;DHT22;4363;52.346;14.516;2022-10-18T21:04:08;13.30;99.90
8651;DHT22;4363;52.346;14.516;2022-10-18T21:06:36;12.50;99.90
8651;DHT22;4363;52.346;14.516;2022-10-18T21:09:05;12.50;99.90
8651;DHT22;4363;52.346;14.516;2022-10-18T21:11:34;12.30;99.90
8651;DHT22;4363;52.346;14.516;2022-10-18T21:14:01;12.40;99.90
8651;DHT22;4363;52.346;14.516;2022-10-18T21:16:28;12.40;99.90
8651;DHT22;4363;52.346;14.516;2022-10-18T21:21:22;12.30;99.90
8651;DHT22;4363;52.346;14.516;2022-10-18T21:23:49;12.30;99.90
8651;DHT22;4363;52.346;14.516;2022-10-18T21:28:42;12.30;99.90
8651;DHT22;4363;52.346;14.516;2022-10-18T21:31:13;12.30;99.90
8651;DHT22;4363;52.346;14.516;2022-10-18T21:33:40;12.20;99.90
8651;DHT22;4363;52.346;14.516;2022-10-18T21:36:06;12.10;99.90
8651;DHT22;4363;52.346;14.516;2022-10-18T21:38:31;12.10;99.90
8651;DHT22;4363;52.346;14.516;2022-10-18T21:40:57;12.00;99.90
8651;DHT22;4363;52.346;14.516;2022-10-18T21:43:23;12.00;99.90
8651;DHT22;4363;52.346;14.516;2022-10-18T21:50:40;11.90;99.90
8651;DHT22;4363;52.346;14.516;2022-10-18T21:53:05;11.90;99.90
8651;DHT22;4363;52.346;14.516;2022-10-18T21:55:34;11.80;99.90
8651;DHT22;4363;52.346;14.516;2022-10-18T22:00:26;11.80;99.90
8651;DHT22;4363;52.346;14.516;2022-10-18T22:03:05;11.70;99.90
8651;DHT22;4363;52.346;14.516;2022-10-18T22:05:31;11.50;99.90
8651;DHT22;4363;52.346;14.516;2022-10-18T22:17:40;11.60;99.90
8651;DHT22;4363;52.346;14.516;2022-10-18T22:20:06;11.30;99.90
8651;DHT22;4363;52.346;14.516;2022-10-18T22:24:57;11.40;99.90
8651;DHT22;4363;52.346;14.516;2022-10-18T22:32:16;11.20;99.90
8651;DHT22;4363;52.346;14.516;2022-10-18T22:44:25;10.90;99.90
8651;DHT22;4363;52.346;14.516;2022-10-18T23:01:27;11.10;99.90
8651;DHT22;4363;52.346;14.516;2022-10-18T23:03:54;11.10;99.90
8651;DHT22;4363;52.346;14.516;2022-10-18T23:06:25;11.10;99.90